Pomeroyton, Kentucky
Current Conditions -  °F | °C
As of 1:30 PM on Monday 26 Jan 2015 (Local Time) from KSYM Reporting Station
Overcast Overcast  
Wind Chill: 16°   Ceiling: 1100
Heat Index: 25°   Visibility: 10mi
Dew Point: 19°   Wind: 8mph
Humidity: 80%   Direction: 310°NW
Pressure: 29.88"   Gusts: 15mph
Location:  37.9798°N, 83.4731°W
Report Text: KSYM 261830Z AUTO 31007G13KT 10SM OVC011 M04/M07 A2988 RMK AO2
Loading
Personal Weather Stations






























Interactive Weather Map New forecast layout! Learn more

10-Day Weather Forecast

Advertisements
Track Severe Weather on mobile